sensor_id;sensor_type;location;lat;lon;timestamp;temperature;humidity
38941;DHT22;43236;47.208;7.518;2022-07-21T00:01:51;23.60;99.90
38941;DHT22;43236;47.208;7.518;2022-07-21T00:04:38;23.60;99.90
38941;DHT22;43236;47.208;7.518;2022-07-21T00:07:25;23.60;99.90
38941;DHT22;43236;47.208;7.518;2022-07-21T00:10:13;23.60;99.90
38941;DHT22;43236;47.208;7.518;2022-07-21T00:13:01;23.60;99.90
38941;DHT22;43236;47.208;7.518;2022-07-21T00:15:48;23.60;99.90
38941;DHT22;43236;47.208;7.518;2022-07-21T00:18:37;23.60;99.90
38941;DHT22;43236;47.208;7.518;2022-07-21T00:21:25;23.60;99.90
38941;DHT22;43236;47.208;7.518;2022-07-21T00:24:12;23.60;99.90
38941;DHT22;43236;47.208;7.518;2022-07-21T00:26:59;23.60;99.90
38941;DHT22;43236;47.208;7.518;2022-07-21T00:29:46;23.60;99.90
38941;DHT22;43236;47.208;7.518;2022-07-21T00:32:33;23.60;99.90
38941;DHT22;43236;47.208;7.518;2022-07-21T00:35:22;23.60;99.90
38941;DHT22;43236;47.208;7.518;2022-07-21T00:38:09;23.60;99.90
38941;DHT22;43236;47.208;7.518;2022-07-21T00:40:56;23.60;99.90
38941;DHT22;43236;47.208;7.518;2022-07-21T00:43:43;23.60;99.90
38941;DHT22;43236;47.208;7.518;2022-07-21T00:46:30;23.60;99.90
38941;DHT22;43236;47.208;7.518;2022-07-21T00:49:18;23.60;99.90
38941;DHT22;43236;47.208;7.518;2022-07-21T00:52:07;23.60;99.90
38941;DHT22;43236;47.208;7.518;2022-07-21T00:54:54;23.60;99.90
38941;DHT22;43236;47.208;7.518;2022-07-21T00:57:41;23.60;99.90
38941;DHT22;43236;47.208;7.518;2022-07-21T01:00:29;23.60;99.90
38941;DHT22;43236;47.208;7.518;2022-07-21T01:03:16;23.60;99.90
38941;DHT22;43236;47.208;7.518;2022-07-21T01:06:04;23.60;99.90
38941;DHT22;43236;47.208;7.518;2022-07-21T01:08:53;23.60;99.90
38941;DHT22;43236;47.208;7.518;2022-07-21T01:11:40;23.60;99.90
38941;DHT22;43236;47.208;7.518;2022-07-21T01:14:28;23.70;99.90
38941;DHT22;43236;47.208;7.518;2022-07-21T01:17:15;23.70;99.90
38941;DHT22;43236;47.208;7.518;2022-07-21T01:20:05;23.60;99.90
38941;DHT22;43236;47.208;7.518;2022-07-21T01:22:55;23.60;99.90
38941;DHT22;43236;47.208;7.518;2022-07-21T01:25:46;23.60;99.90
38941;DHT22;43236;47.208;7.518;2022-07-21T01:28:33;23.60;99.90
38941;DHT22;43236;47.208;7.518;2022-07-21T01:31:20;23.60;99.90
38941;DHT22;43236;47.208;7.518;2022-07-21T01:34:09;23.60;99.90
38941;DHT22;43236;47.208;7.518;2022-07-21T01:36:56;23.60;99.90
38941;DHT22;43236;47.208;7.518;2022-07-21T01:39:46;23.60;99.90
38941;DHT22;43236;47.208;7.518;2022-07-21T01:42:53;23.50;99.90
38941;DHT22;43236;47.208;7.518;2022-07-21T01:45:40;23.50;99.90
38941;DHT22;43236;47.208;7.518;2022-07-21T01:48:27;23.50;99.90
38941;DHT22;43236;47.208;7.518;2022-07-21T01:51:15;23.50;99.90
38941;DHT22;43236;47.208;7.518;2022-07-21T01:54:03;23.40;99.90
38941;DHT22;43236;47.208;7.518;2022-07-21T01:56:52;23.40;99.90
38941;DHT22;43236;47.208;7.518;2022-07-21T01:59:39;23.40;99.90
38941;DHT22;43236;47.208;7.518;2022-07-21T02:02:26;23.30;99.90
38941;DHT22;43236;47.208;7.518;2022-07-21T02:05:13;23.30;99.90
38941;DHT22;43236;47.208;7.518;2022-07-21T02:08:00;23.40;99.90
38941;DHT22;43236;47.208;7.518;2022-07-21T02:10:47;23.30;99.90
38941;DHT22;43236;47.208;7.518;2022-07-21T02:13:36;23.30;99.90
38941;DHT22;43236;47.208;7.518;2022-07-21T02:16:23;23.30;99.90
38941;DHT22;43236;47.208;7.518;2022-07-21T02:19:10;23.30;99.90
38941;DHT22;43236;47.208;7.518;2022-07-21T02:21:57;23.30;99.90
38941;DHT22;43236;47.208;7.518;2022-07-21T02:24:44;23.30;99.90
38941;DHT22;43236;47.208;7.518;2022-07-21T02:27:31;23.30;99.90
38941;DHT22;43236;47.208;7.518;2022-07-21T02:30:20;23.30;99.90
38941;DHT22;43236;47.208;7.518;2022-07-21T02:33:07;23.30;99.90
38941;DHT22;43236;47.208;7.518;2022-07-21T02:35:54;23.30;99.90
38941;DHT22;43236;47.208;7.518;2022-07-21T02:38:42;23.30;99.90
38941;DHT22;43236;47.208;7.518;2022-07-21T02:41:29;23.20;99.90
38941;DHT22;43236;47.208;7.518;2022-07-21T02:44:16;23.20;99.90
38941;DHT22;43236;47.208;7.518;2022-07-21T02:47:04;23.30;99.90
38941;DHT22;43236;47.208;7.518;2022-07-21T02:49:51;23.20;99.90
38941;DHT22;43236;47.208;7.518;2022-07-21T02:52:38;23.30;99.90
38941;DHT22;43236;47.208;7.518;2022-07-21T02:55:26;23.20;99.90
38941;DHT22;43236;47.208;7.518;2022-07-21T02:58:16;23.20;99.90
38941;DHT22;43236;47.208;7.518;2022-07-21T03:01:05;23.20;99.90
38941;DHT22;43236;47.208;7.518;2022-07-21T03:03:54;23.30;99.90
38941;DHT22;43236;47.208;7.518;2022-07-21T03:06:41;23.30;99.90
38941;DHT22;43236;47.208;7.518;2022-07-21T03:09:28;23.30;99.90
38941;DHT22;43236;47.208;7.518;2022-07-21T03:12:15;23.30;99.90
38941;DHT22;43236;47.208;7.518;2022-07-21T03:15:03;23.30;99.90
38941;DHT22;43236;47.208;7.518;2022-07-21T03:17:50;23.30;99.90
38941;DHT22;43236;47.208;7.518;2022-07-21T03:20:40;23.30;99.90
38941;DHT22;43236;47.208;7.518;2022-07-21T03:23:28;23.30;99.90
38941;DHT22;43236;47.208;7.518;2022-07-21T03:26:15;23.30;99.90
38941;DHT22;43236;47.208;7.518;2022-07-21T03:29:03;23.30;99.90
38941;DHT22;43236;47.208;7.518;2022-07-21T03:31:50;23.30;99.90
38941;DHT22;43236;47.208;7.518;2022-07-21T03:34:37;23.30;99.90
38941;DHT22;43236;47.208;7.518;2022-07-21T03:37:26;23.20;99.90
38941;DHT22;43236;47.208;7.518;2022-07-21T03:40:15;23.20;99.90
38941;DHT22;43236;47.208;7.518;2022-07-21T03:43:04;23.20;99.90
38941;DHT22;43236;47.208;7.518;2022-07-21T03:45:51;23.20;99.90
38941;DHT22;43236;47.208;7.518;2022-07-21T03:48:39;23.20;99.90
38941;DHT22;43236;47.208;7.518;2022-07-21T03:51:26;23.20;99.90
38941;DHT22;43236;47.208;7.518;2022-07-21T03:54:14;23.20;99.90
38941;DHT22;43236;47.208;7.518;2022-07-21T03:57:01;23.20;99.90
38941;DHT22;43236;47.208;7.518;2022-07-21T03:59:48;23.20;99.90
38941;DHT22;43236;47.208;7.518;2022-07-21T04:02:35;23.10;99.90
38941;DHT22;43236;47.208;7.518;2022-07-21T04:05:23;23.10;99.90
38941;DHT22;43236;47.208;7.518;2022-07-21T04:08:12;23.10;99.90
38941;DHT22;43236;47.208;7.518;2022-07-21T04:11:01;23.10;99.90
38941;DHT22;43236;47.208;7.518;2022-07-21T04:13:48;23.10;99.90
38941;DHT22;43236;47.208;7.518;2022-07-21T04:16:35;23.10;99.90
38941;DHT22;43236;47.208;7.518;2022-07-21T04:19:22;23.10;99.90
38941;DHT22;43236;47.208;7.518;2022-07-21T04:22:09;23.10;99.90
38941;DHT22;43236;47.208;7.518;2022-07-21T04:24:56;23.10;99.90
38941;DHT22;43236;47.208;7.518;2022-07-21T04:27:45;23.10;99.90
38941;DHT22;43236;47.208;7.518;2022-07-21T04:30:33;23.10;99.90
38941;DHT22;43236;47.208;7.518;2022-07-21T04:33:20;23.10;99.90
38941;DHT22;43236;47.208;7.518;2022-07-21T04:36:08;23.10;99.90
38941;DHT22;43236;47.208;7.518;2022-07-21T04:38:55;23.10;99.90
38941;DHT22;43236;47.208;7.518;2022-07-21T04:41:42;23.10;99.90
38941;DHT22;43236;47.208;7.518;2022-07-21T04:44:31;23.10;99.90
38941;DHT22;43236;47.208;7.518;2022-07-21T04:47:18;23.10;99.90
38941;DHT22;43236;47.208;7.518;2022-07-21T04:50:05;23.00;99.90
38941;DHT22;43236;47.208;7.518;2022-07-21T04:52:53;23.00;99.90
38941;DHT22;43236;47.208;7.518;2022-07-21T04:55:40;23.10;99.90
38941;DHT22;43236;47.208;7.518;2022-07-21T04:58:27;23.10;99.90
38941;DHT22;43236;47.208;7.518;2022-07-21T05:01:16;23.10;99.90
38941;DHT22;43236;47.208;7.518;2022-07-21T05:04:05;23.30;99.90
38941;DHT22;43236;47.208;7.518;2022-07-21T05:06:53;23.20;99.90
38941;DHT22;43236;47.208;7.518;2022-07-21T05:09:40;23.20;99.90
38941;DHT22;43236;47.208;7.518;2022-07-21T05:12:27;23.20;99.90
38941;DHT22;43236;47.208;7.518;2022-07-21T05:15:14;23.20;99.90
38941;DHT22;43236;47.208;7.518;2022-07-21T05:18:07;23.20;99.90
38941;DHT22;43236;47.208;7.518;2022-07-21T05:20:54;23.20;99.90
38941;DHT22;43236;47.208;7.518;2022-07-21T05:23:42;23.20;99.90
38941;DHT22;43236;47.208;7.518;2022-07-21T05:26:29;23.20;99.90
38941;DHT22;43236;47.208;7.518;2022-07-21T05:29:16;23.30;99.90
38941;DHT22;43236;47.208;7.518;2022-07-21T05:32:04;23.30;99.90
38941;DHT22;43236;47.208;7.518;2022-07-21T05:34:52;23.30;99.90
38941;DHT22;43236;47.208;7.518;2022-07-21T05:37:41;23.40;99.90
38941;DHT22;43236;47.208;7.518;2022-07-21T05:40:28;23.40;99.90
38941;DHT22;43236;47.208;7.518;2022-07-21T05:43:16;23.40;99.90
38941;DHT22;43236;47.208;7.518;2022-07-21T05:46:03;23.50;99.90
38941;DHT22;43236;47.208;7.518;2022-07-21T05:48:50;23.50;99.90
38941;DHT22;43236;47.208;7.518;2022-07-21T05:51:39;23.50;99.90
38941;DHT22;43236;47.208;7.518;2022-07-21T05:54:26;23.60;99.90
38941;DHT22;43236;47.208;7.518;2022-07-21T05:57:13;23.50;99.90
38941;DHT22;43236;47.208;7.518;2022-07-21T06:00:00;23.50;99.90
38941;DHT22;43236;47.208;7.518;2022-07-21T06:02:47;23.50;99.90
38941;DHT22;43236;47.208;7.518;2022-07-21T06:05:36;23.60;99.90
38941;DHT22;43236;47.208;7.518;2022-07-21T06:08:24;23.70;99.90
38941;DHT22;43236;47.208;7.518;2022-07-21T06:11:14;23.70;99.90
38941;DHT22;43236;47.208;7.518;2022-07-21T06:14:01;23.70;99.90
38941;DHT22;43236;47.208;7.518;2022-07-21T06:16:49;23.70;99.90
38941;DHT22;43236;47.208;7.518;2022-07-21T06:19:36;23.80;99.90
38941;DHT22;43236;47.208;7.518;2022-07-21T06:22:24;23.90;99.90
38941;DHT22;43236;47.208;7.518;2022-07-21T06:25:12;23.90;99.90
38941;DHT22;43236;47.208;7.518;2022-07-21T06:27:59;24.00;99.90
38941;DHT22;43236;47.208;7.518;2022-07-21T06:30:46;24.00;99.90
38941;DHT22;43236;47.208;7.518;2022-07-21T06:33:34;24.00;99.90
38941;DHT22;43236;47.208;7.518;2022-07-21T06:36:21;24.00;99.90
38941;DHT22;43236;47.208;7.518;2022-07-21T06:39:08;24.10;99.90
38941;DHT22;43236;47.208;7.518;2022-07-21T06:41:59;24.10;99.90
38941;DHT22;43236;47.208;7.518;2022-07-21T06:44:46;24.20;99.90
38941;DHT22;43236;47.208;7.518;2022-07-21T06:47:33;24.20;99.90
38941;DHT22;43236;47.208;7.518;2022-07-21T06:50:20;24.30;99.90
38941;DHT22;43236;47.208;7.518;2022-07-21T06:53:08;24.40;99.90
38941;DHT22;43236;47.208;7.518;2022-07-21T06:55:55;24.40;99.90
38941;DHT22;43236;47.208;7.518;2022-07-21T06:58:44;24.40;99.90
38941;DHT22;43236;47.208;7.518;2022-07-21T07:01:31;24.40;99.90
38941;DHT22;43236;47.208;7.518;2022-07-21T07:04:19;24.40;99.90
38941;DHT22;43236;47.208;7.518;2022-07-21T07:07:07;24.40;99.90
38941;DHT22;43236;47.208;7.518;2022-07-21T07:09:54;24.40;99.90
38941;DHT22;43236;47.208;7.518;2022-07-21T07:12:41;24.40;99.90
38941;DHT22;43236;47.208;7.518;2022-07-21T07:15:29;24.40;99.90
38941;DHT22;43236;47.208;7.518;2022-07-21T07:18:16;24.40;99.90
38941;DHT22;43236;47.208;7.518;2022-07-21T07:21:06;24.40;99.90
38941;DHT22;43236;47.208;7.518;2022-07-21T07:23:53;24.50;99.90
38941;DHT22;43236;47.208;7.518;2022-07-21T07:26:40;24.50;99.90
38941;DHT22;43236;47.208;7.518;2022-07-21T07:29:27;24.60;99.90
38941;DHT22;43236;47.208;7.518;2022-07-21T07:32:16;24.70;99.90
38941;DHT22;43236;47.208;7.518;2022-07-21T07:35:03;24.80;99.90
38941;DHT22;43236;47.208;7.518;2022-07-21T07:37:51;24.80;99.90
38941;DHT22;43236;47.208;7.518;2022-07-21T07:40:38;24.80;99.90
38941;DHT22;43236;47.208;7.518;2022-07-21T07:43:25;24.80;99.90
38941;DHT22;43236;47.208;7.518;2022-07-21T07:46:12;24.70;99.90
38941;DHT22;43236;47.208;7.518;2022-07-21T07:49:01;24.70;99.90
38941;DHT22;43236;47.208;7.518;2022-07-21T07:51:49;24.60;99.90
38941;DHT22;43236;47.208;7.518;2022-07-21T07:54:36;24.60;99.90
38941;DHT22;43236;47.208;7.518;2022-07-21T07:57:23;24.50;99.90
38941;DHT22;43236;47.208;7.518;2022-07-21T08:00:13;24.50;99.90
38941;DHT22;43236;47.208;7.518;2022-07-21T08:03:01;24.40;99.90
38941;DHT22;43236;47.208;7.518;2022-07-21T08:05:49;24.40;99.90
38941;DHT22;43236;47.208;7.518;2022-07-21T08:08:37;24.40;99.90
38941;DHT22;43236;47.208;7.518;2022-07-21T08:11:24;24.40;99.90
38941;DHT22;43236;47.208;7.518;2022-07-21T08:14:11;24.40;99.90
38941;DHT22;43236;47.208;7.518;2022-07-21T08:16:58;24.40;99.90
38941;DHT22;43236;47.208;7.518;2022-07-21T08:19:46;24.50;99.90
38941;DHT22;43236;47.208;7.518;2022-07-21T08:22:34;22.50;99.90
38941;DHT22;43236;47.208;7.518;2022-07-21T08:25:21;24.50;99.90
38941;DHT22;43236;47.208;7.518;2022-07-21T08:28:09;24.50;99.90
38941;DHT22;43236;47.208;7.518;2022-07-21T08:30:56;24.50;99.90
38941;DHT22;43236;47.208;7.518;2022-07-21T08:33:44;24.60;99.90
38941;DHT22;43236;47.208;7.518;2022-07-21T08:36:31;24.60;99.90
38941;DHT22;43236;47.208;7.518;2022-07-21T08:39:19;24.60;99.90
38941;DHT22;43236;47.208;7.518;2022-07-21T08:42:07;24.60;99.90
38941;DHT22;43236;47.208;7.518;2022-07-21T08:44:54;24.70;99.90
38941;DHT22;43236;47.208;7.518;2022-07-21T08:47:41;24.70;99.90
38941;DHT22;43236;47.208;7.518;2022-07-21T08:50:31;24.70;99.90
38941;DHT22;43236;47.208;7.518;2022-07-21T08:53:18;24.80;99.90
38941;DHT22;43236;47.208;7.518;2022-07-21T08:56:07;24.80;99.90
38941;DHT22;43236;47.208;7.518;2022-07-21T08:58:54;24.80;99.90
38941;DHT22;43236;47.208;7.518;2022-07-21T09:01:41;24.80;99.90
38941;DHT22;43236;47.208;7.518;2022-07-21T09:04:30;24.80;99.90
38941;DHT22;43236;47.208;7.518;2022-07-21T09:07:18;24.80;99.90
38941;DHT22;43236;47.208;7.518;2022-07-21T09:10:06;24.80;99.90
38941;DHT22;43236;47.208;7.518;2022-07-21T09:12:57;24.80;99.90
38941;DHT22;43236;47.208;7.518;2022-07-21T09:15:47;24.90;99.90
38941;DHT22;43236;47.208;7.518;2022-07-21T09:18:35;24.90;99.90
38941;DHT22;43236;47.208;7.518;2022-07-21T09:21:34;24.90;99.90
38941;DHT22;43236;47.208;7.518;2022-07-21T09:24:22;25.00;99.90
38941;DHT22;43236;47.208;7.518;2022-07-21T09:27:13;25.00;99.90
38941;DHT22;43236;47.208;7.518;2022-07-21T09:30:02;25.00;99.90
38941;DHT22;43236;47.208;7.518;2022-07-21T09:32:49;25.00;99.90
38941;DHT22;43236;47.208;7.518;2022-07-21T09:35:36;25.00;99.90
38941;DHT22;43236;47.208;7.518;2022-07-21T09:38:24;25.10;99.90
38941;DHT22;43236;47.208;7.518;2022-07-21T09:41:14;25.10;99.90
38941;DHT22;43236;47.208;7.518;2022-07-21T09:44:01;25.10;99.90
38941;DHT22;43236;47.208;7.518;2022-07-21T09:47:09;25.20;99.90
38941;DHT22;43236;47.208;7.518;2022-07-21T09:49:57;25.20;99.60
38941;DHT22;43236;47.208;7.518;2022-07-21T09:52:45;25.20;99.90
38941;DHT22;43236;47.208;7.518;2022-07-21T09:55:32;25.30;99.80
38941;DHT22;43236;47.208;7.518;2022-07-21T09:58:19;25.30;99.90
38941;DHT22;43236;47.208;7.518;2022-07-21T10:01:06;25.30;99.90
38941;DHT22;43236;47.208;7.518;2022-07-21T10:03:56;25.30;98.30
38941;DHT22;43236;47.208;7.518;2022-07-21T10:06:46;25.30;98.10
38941;DHT22;43236;47.208;7.518;2022-07-21T10:09:33;25.30;96.90
38941;DHT22;43236;47.208;7.518;2022-07-21T10:12:21;25.30;97.10
38941;DHT22;43236;47.208;7.518;2022-07-21T10:15:09;25.30;98.00
38941;DHT22;43236;47.208;7.518;2022-07-21T10:17:58;25.30;97.60
38941;DHT22;43236;47.208;7.518;2022-07-21T10:20:52;25.30;96.90
38941;DHT22;43236;47.208;7.518;2022-07-21T10:23:43;25.40;97.50
38941;DHT22;43236;47.208;7.518;2022-07-21T10:26:30;25.40;96.00
38941;DHT22;43236;47.208;7.518;2022-07-21T10:29:48;25.40;95.80
38941;DHT22;43236;47.208;7.518;2022-07-21T10:32:37;25.40;96.40
38941;DHT22;43236;47.208;7.518;2022-07-21T10:35:27;25.50;96.20
38941;DHT22;43236;47.208;7.518;2022-07-21T10:38:27;25.50;95.40
38941;DHT22;43236;47.208;7.518;2022-07-21T10:41:37;25.60;97.30
38941;DHT22;43236;47.208;7.518;2022-07-21T10:44:44;25.60;96.60
38941;DHT22;43236;47.208;7.518;2022-07-21T10:47:32;25.70;96.20
38941;DHT22;43236;47.208;7.518;2022-07-21T10:50:30;25.80;96.60
38941;DHT22;43236;47.208;7.518;2022-07-21T10:53:18;25.80;94.30
38941;DHT22;43236;47.208;7.518;2022-07-21T10:56:06;25.80;92.90
38941;DHT22;43236;47.208;7.518;2022-07-21T10:58:55;25.90;92.60
38941;DHT22;43236;47.208;7.518;2022-07-21T11:01:42;25.90;93.10
38941;DHT22;43236;47.208;7.518;2022-07-21T11:04:30;25.90;92.80
38941;DHT22;43236;47.208;7.518;2022-07-21T11:07:17;26.00;94.70
38941;DHT22;43236;47.208;7.518;2022-07-21T11:10:17;26.00;93.90
38941;DHT22;43236;47.208;7.518;2022-07-21T11:13:04;26.10;94.00
38941;DHT22;43236;47.208;7.518;2022-07-21T11:15:57;26.20;93.30
38941;DHT22;43236;47.208;7.518;2022-07-21T11:18:45;26.20;94.50
38941;DHT22;43236;47.208;7.518;2022-07-21T11:21:32;26.30;94.50
38941;DHT22;43236;47.208;7.518;2022-07-21T11:24:20;26.30;94.30
38941;DHT22;43236;47.208;7.518;2022-07-21T11:27:09;26.40;94.40
38941;DHT22;43236;47.208;7.518;2022-07-21T11:29:58;26.40;93.80
38941;DHT22;43236;47.208;7.518;2022-07-21T11:32:47;26.40;94.80
38941;DHT22;43236;47.208;7.518;2022-07-21T11:35:37;26.30;93.30
38941;DHT22;43236;47.208;7.518;2022-07-21T11:38:24;26.30;93.50
38941;DHT22;43236;47.208;7.518;2022-07-21T11:41:18;26.40;94.10
38941;DHT22;43236;47.208;7.518;2022-07-21T11:44:06;26.40;93.50
38941;DHT22;43236;47.208;7.518;2022-07-21T11:46:55;26.40;93.50
38941;DHT22;43236;47.208;7.518;2022-07-21T11:49:44;26.50;92.60
38941;DHT22;43236;47.208;7.518;2022-07-21T11:52:33;26.50;92.50
38941;DHT22;43236;47.208;7.518;2022-07-21T11:55:20;26.50;93.10
38941;DHT22;43236;47.208;7.518;2022-07-21T11:58:13;26.60;93.40
38941;DHT22;43236;47.208;7.518;2022-07-21T12:01:07;26.70;92.30
38941;DHT22;43236;47.208;7.518;2022-07-21T12:03:54;26.80;92.60
38941;DHT22;43236;47.208;7.518;2022-07-21T12:06:42;26.90;90.60
38941;DHT22;43236;47.208;7.518;2022-07-21T12:09:29;27.00;90.70
38941;DHT22;43236;47.208;7.518;2022-07-21T12:12:31;27.00;90.50
38941;DHT22;43236;47.208;7.518;2022-07-21T12:15:20;27.00;91.50
38941;DHT22;43236;47.208;7.518;2022-07-21T12:18:17;27.10;90.70
38941;DHT22;43236;47.208;7.518;2022-07-21T12:21:05;27.20;90.70
38941;DHT22;43236;47.208;7.518;2022-07-21T12:23:53;27.10;90.10
38941;DHT22;43236;47.208;7.518;2022-07-21T12:26:40;27.20;91.70
38941;DHT22;43236;47.208;7.518;2022-07-21T12:29:28;27.20;90.40
38941;DHT22;43236;47.208;7.518;2022-07-21T12:32:46;27.20;89.30
38941;DHT22;43236;47.208;7.518;2022-07-21T12:35:34;27.10;88.60
38941;DHT22;43236;47.208;7.518;2022-07-21T12:38:21;27.10;90.30
38941;DHT22;43236;47.208;7.518;2022-07-21T12:41:11;27.20;90.10
38941;DHT22;43236;47.208;7.518;2022-07-21T12:44:00;27.20;90.20
38941;DHT22;43236;47.208;7.518;2022-07-21T12:46:47;27.30;90.70
38941;DHT22;43236;47.208;7.518;2022-07-21T12:49:54;27.40;91.70
38941;DHT22;43236;47.208;7.518;2022-07-21T12:52:41;27.40;90.20
38941;DHT22;43236;47.208;7.518;2022-07-21T12:55:28;27.50;89.50
38941;DHT22;43236;47.208;7.518;2022-07-21T12:58:16;27.40;91.10
38941;DHT22;43236;47.208;7.518;2022-07-21T13:01:04;27.40;88.50
38941;DHT22;43236;47.208;7.518;2022-07-21T13:03:51;27.40;89.60
38941;DHT22;43236;47.208;7.518;2022-07-21T13:06:38;27.30;90.10
38941;DHT22;43236;47.208;7.518;2022-07-21T13:09:25;27.40;89.10
38941;DHT22;43236;47.208;7.518;2022-07-21T13:12:13;27.40;88.30
38941;DHT22;43236;47.208;7.518;2022-07-21T13:15:01;27.40;89.40
38941;DHT22;43236;47.208;7.518;2022-07-21T13:17:48;27.40;86.70
38941;DHT22;43236;47.208;7.518;2022-07-21T13:20:35;27.40;88.20
38941;DHT22;43236;47.208;7.518;2022-07-21T13:23:22;27.50;88.00
38941;DHT22;43236;47.208;7.518;2022-07-21T13:26:09;27.50;88.40
38941;DHT22;43236;47.208;7.518;2022-07-21T13:28:56;27.60;87.60
38941;DHT22;43236;47.208;7.518;2022-07-21T13:31:45;27.60;87.20
38941;DHT22;43236;47.208;7.518;2022-07-21T13:34:32;27.60;87.20
38941;DHT22;43236;47.208;7.518;2022-07-21T13:37:19;27.70;88.70
38941;DHT22;43236;47.208;7.518;2022-07-21T13:40:07;27.70;88.30
38941;DHT22;43236;47.208;7.518;2022-07-21T13:42:55;27.70;87.40
38941;DHT22;43236;47.208;7.518;2022-07-21T13:45:42;27.90;86.90
38941;DHT22;43236;47.208;7.518;2022-07-21T13:48:30;27.80;90.00
38941;DHT22;43236;47.208;7.518;2022-07-21T13:51:19;27.80;86.80
38941;DHT22;43236;47.208;7.518;2022-07-21T13:54:06;27.80;85.00
38941;DHT22;43236;47.208;7.518;2022-07-21T13:56:53;27.80;86.30
38941;DHT22;43236;47.208;7.518;2022-07-21T13:59:42;27.80;83.60
38941;DHT22;43236;47.208;7.518;2022-07-21T14:02:29;27.80;85.40
38941;DHT22;43236;47.208;7.518;2022-07-21T14:05:18;27.90;84.90
38941;DHT22;43236;47.208;7.518;2022-07-21T14:08:05;28.00;85.80
38941;DHT22;43236;47.208;7.518;2022-07-21T14:10:52;28.00;86.20
38941;DHT22;43236;47.208;7.518;2022-07-21T14:13:40;28.20;86.00
38941;DHT22;43236;47.208;7.518;2022-07-21T14:16:27;28.20;84.20
38941;DHT22;43236;47.208;7.518;2022-07-21T14:19:15;28.20;83.90
38941;DHT22;43236;47.208;7.518;2022-07-21T14:22:03;28.30;84.00
38941;DHT22;43236;47.208;7.518;2022-07-21T14:24:50;28.00;82.00
38941;DHT22;43236;47.208;7.518;2022-07-21T14:27:56;28.20;81.00
38941;DHT22;43236;47.208;7.518;2022-07-21T14:30:44;28.20;81.90
38941;DHT22;43236;47.208;7.518;2022-07-21T14:33:31;28.20;81.70
38941;DHT22;43236;47.208;7.518;2022-07-21T14:36:18;28.10;82.60
38941;DHT22;43236;47.208;7.518;2022-07-21T14:39:07;28.10;82.80
38941;DHT22;43236;47.208;7.518;2022-07-21T14:41:54;28.10;83.40
38941;DHT22;43236;47.208;7.518;2022-07-21T14:44:41;28.10;84.10
38941;DHT22;43236;47.208;7.518;2022-07-21T14:47:28;28.20;84.50
38941;DHT22;43236;47.208;7.518;2022-07-21T14:50:16;28.20;83.30
38941;DHT22;43236;47.208;7.518;2022-07-21T14:53:03;28.20;83.80
38941;DHT22;43236;47.208;7.518;2022-07-21T14:55:53;28.30;83.80
38941;DHT22;43236;47.208;7.518;2022-07-21T14:58:40;28.40;85.30
38941;DHT22;43236;47.208;7.518;2022-07-21T15:01:27;28.60;84.60
38941;DHT22;43236;47.208;7.518;2022-07-21T15:04:14;28.60;83.20
38941;DHT22;43236;47.208;7.518;2022-07-21T15:07:01;28.70;85.70
38941;DHT22;43236;47.208;7.518;2022-07-21T15:09:48;28.70;82.80
38941;DHT22;43236;47.208;7.518;2022-07-21T15:12:36;28.80;82.70
38941;DHT22;43236;47.208;7.518;2022-07-21T15:15:24;28.90;82.00
38941;DHT22;43236;47.208;7.518;2022-07-21T15:18:11;29.00;81.50
38941;DHT22;43236;47.208;7.518;2022-07-21T15:20:59;29.00;80.00
38941;DHT22;43236;47.208;7.518;2022-07-21T15:23:46;29.00;80.10
38941;DHT22;43236;47.208;7.518;2022-07-21T15:26:34;28.90;79.30
38941;DHT22;43236;47.208;7.518;2022-07-21T15:29:22;28.80;79.20
38941;DHT22;43236;47.208;7.518;2022-07-21T15:32:09;28.80;79.40
38941;DHT22;43236;47.208;7.518;2022-07-21T15:34:56;28.80;80.70
38941;DHT22;43236;47.208;7.518;2022-07-21T15:37:43;28.80;82.80
38941;DHT22;43236;47.208;7.518;2022-07-21T15:40:30;28.80;82.70
38941;DHT22;43236;47.208;7.518;2022-07-21T15:43:18;28.90;80.60
38941;DHT22;43236;47.208;7.518;2022-07-21T15:46:07;28.90;80.40
38941;DHT22;43236;47.208;7.518;2022-07-21T15:48:54;28.90;79.10
38941;DHT22;43236;47.208;7.518;2022-07-21T15:51:41;28.90;83.20
38941;DHT22;43236;47.208;7.518;2022-07-21T15:54:28;29.00;82.70
38941;DHT22;43236;47.208;7.518;2022-07-21T15:57:16;29.00;79.70
38941;DHT22;43236;47.208;7.518;2022-07-21T16:00:04;29.00;83.30
38941;DHT22;43236;47.208;7.518;2022-07-21T16:02:52;29.00;82.30
38941;DHT22;43236;47.208;7.518;2022-07-21T16:05:41;28.90;82.40
38941;DHT22;43236;47.208;7.518;2022-07-21T16:08:28;28.90;82.00
38941;DHT22;43236;47.208;7.518;2022-07-21T16:11:15;28.80;81.80
38941;DHT22;43236;47.208;7.518;2022-07-21T16:14:02;28.80;81.90
38941;DHT22;43236;47.208;7.518;2022-07-21T16:16:50;28.90;80.40
38941;DHT22;43236;47.208;7.518;2022-07-21T16:19:39;28.80;79.90
38941;DHT22;43236;47.208;7.518;2022-07-21T16:22:26;28.80;78.70
38941;DHT22;43236;47.208;7.518;2022-07-21T16:25:15;28.90;79.00
38941;DHT22;43236;47.208;7.518;2022-07-21T16:28:02;28.90;79.10
38941;DHT22;43236;47.208;7.518;2022-07-21T16:30:49;28.90;79.10
38941;DHT22;43236;47.208;7.518;2022-07-21T16:33:36;29.00;78.50
38941;DHT22;43236;47.208;7.518;2022-07-21T16:36:25;29.00;78.60
38941;DHT22;43236;47.208;7.518;2022-07-21T16:39:12;29.00;79.80
38941;DHT22;43236;47.208;7.518;2022-07-21T16:41:59;29.10;79.80
38941;DHT22;43236;47.208;7.518;2022-07-21T16:44:46;29.00;78.40
38941;DHT22;43236;47.208;7.518;2022-07-21T16:47:33;29.00;78.10
38941;DHT22;43236;47.208;7.518;2022-07-21T16:50:21;29.10;79.40
38941;DHT22;43236;47.208;7.518;2022-07-21T16:53:09;29.10;77.70
38941;DHT22;43236;47.208;7.518;2022-07-21T16:55:57;29.20;77.70
38941;DHT22;43236;47.208;7.518;2022-07-21T16:58:45;29.30;77.80
38941;DHT22;43236;47.208;7.518;2022-07-21T17:01:32;29.40;76.40
38941;DHT22;43236;47.208;7.518;2022-07-21T17:04:19;29.60;77.30
38941;DHT22;43236;47.208;7.518;2022-07-21T17:07:06;29.90;78.60
38941;DHT22;43236;47.208;7.518;2022-07-21T17:09:55;30.60;74.60
38941;DHT22;43236;47.208;7.518;2022-07-21T17:12:42;32.00;73.20
38941;DHT22;43236;47.208;7.518;2022-07-21T17:15:29;33.70;66.60
38941;DHT22;43236;47.208;7.518;2022-07-21T17:18:16;34.90;65.90
38941;DHT22;43236;47.208;7.518;2022-07-21T17:21:05;36.20;62.80
38941;DHT22;43236;47.208;7.518;2022-07-21T17:23:53;36.20;61.10
38941;DHT22;43236;47.208;7.518;2022-07-21T17:26:42;36.70;59.00
38941;DHT22;43236;47.208;7.518;2022-07-21T17:29:29;37.00;57.60
38941;DHT22;43236;47.208;7.518;2022-07-21T17:32:16;37.20;58.40
38941;DHT22;43236;47.208;7.518;2022-07-21T17:35:04;37.40;57.40
38941;DHT22;43236;47.208;7.518;2022-07-21T17:37:52;37.50;56.80
38941;DHT22;43236;47.208;7.518;2022-07-21T17:40:39;37.40;55.10
38941;DHT22;43236;47.208;7.518;2022-07-21T17:43:28;37.40;55.40